createdAt,value
2018-12-21T00:00:57.512Z,7.52
2018-12-21T00:03:44.632Z,7.40
2018-12-21T00:06:38.539Z,7.31
2018-12-21T00:09:25.431Z,8.05
2018-12-21T00:12:12.925Z,8.25
2018-12-21T00:15:00.209Z,7.61
2018-12-21T00:17:47.490Z,7.46
2018-12-21T00:23:41.969Z,7.32
2018-12-21T00:26:29.458Z,8.03
2018-12-21T00:29:17.422Z,7.52
2018-12-21T00:32:22.833Z,7.41
2018-12-21T00:35:29.391Z,7.34
2018-12-21T00:38:35.946Z,7.28
2018-12-21T00:41:24.097Z,7.22
2018-12-21T00:44:12.951Z,7.21
2018-12-21T00:47:01.389Z,7.22
2018-12-21T00:49:49.240Z,7.20
2018-12-21T00:52:37.086Z,7.20
2018-12-21T00:55:24.931Z,7.19
2018-12-21T00:58:19.934Z,7.92
2018-12-21T01:01:08.528Z,7.42
2018-12-21T01:03:58.154Z,7.35
2018-12-21T01:06:42.872Z,7.32
2018-12-21T01:09:30.112Z,7.30
2018-12-21T01:12:21.404Z,7.27
2018-12-21T01:15:09.690Z,7.22
2018-12-21T01:17:57.198Z,7.19
2018-12-21T01:20:44.276Z,7.18
2018-12-21T01:23:31.828Z,7.16
2018-12-21T01:26:19.620Z,7.11
2018-12-21T01:29:07.362Z,7.08
2018-12-21T01:31:54.860Z,7.05
2018-12-21T01:34:42.411Z,7.04
2018-12-21T01:37:30.163Z,7.78
2018-12-21T01:40:19.336Z,7.31
2018-12-21T01:43:06.595Z,7.97
2018-12-21T01:45:54.402Z,8.19
2018-12-21T01:48:41.532Z,7.60
2018-12-21T01:51:30.253Z,7.45
2018-12-21T01:54:17.506Z,7.35
2018-12-21T01:57:05.982Z,8.05
2018-12-21T01:59:53.371Z,7.50
2018-12-21T02:02:40.460Z,7.37
2018-12-21T02:05:27.806Z,7.29
2018-12-21T02:08:14.900Z,7.24
2018-12-21T02:11:02.337Z,7.18
2018-12-21T02:13:49.808Z,7.91
2018-12-21T02:16:37.168Z,7.38
2018-12-21T02:19:24.489Z,7.27
2018-12-21T02:22:11.765Z,7.21
2018-12-21T02:24:59.310Z,7.93
2018-12-21T02:27:47.328Z,7.40
2018-12-21T02:30:42.961Z,7.27
2018-12-21T02:33:30.405Z,7.21
2018-12-21T02:36:18.045Z,7.16
2018-12-21T02:39:05.300Z,7.13
2018-12-21T02:41:53.808Z,7.09
2018-12-21T02:44:41.185Z,7.07
2018-12-21T02:47:28.606Z,7.04
2018-12-21T02:50:16.069Z,7.02
2018-12-21T02:53:03.390Z,6.99
2018-12-21T02:55:50.825Z,6.98
2018-12-21T02:58:38.341Z,6.96
2018-12-21T03:01:25.520Z,6.97
2018-12-21T03:04:12.945Z,6.96
2018-12-21T03:07:00.302Z,6.96
2018-12-21T03:09:47.519Z,6.94
2018-12-21T03:12:34.939Z,6.95
2018-12-21T03:15:22.288Z,6.94
2018-12-21T03:18:09.685Z,6.95
2018-12-21T03:24:04.185Z,6.94
2018-12-21T03:26:51.260Z,6.94
2018-12-21T03:29:38.628Z,6.94
2018-12-21T03:32:25.859Z,6.94
2018-12-21T03:35:12.862Z,6.93
2018-12-21T03:38:00.244Z,6.93
2018-12-21T03:40:47.863Z,6.93
2018-12-21T03:43:35.062Z,6.94
2018-12-21T03:46:22.610Z,7.63
2018-12-21T03:49:10.080Z,7.17
2018-12-21T03:51:57.530Z,7.08
2018-12-21T03:54:44.874Z,7.77
2018-12-21T04:00:38.842Z,7.96
2018-12-21T04:03:26.177Z,7.43
2018-12-21T04:06:13.642Z,7.31
2018-12-21T04:09:00.733Z,7.26
2018-12-21T04:11:47.933Z,7.23
2018-12-21T04:14:35.497Z,7.21
2018-12-21T04:17:22.777Z,7.93
2018-12-21T04:20:09.825Z,8.17
2018-12-21T04:22:57.414Z,7.59
2018-12-21T04:25:45.903Z,7.46
2018-12-21T04:28:33.318Z,7.41
2018-12-21T04:31:20.440Z,7.35
2018-12-21T04:34:07.857Z,7.31
2018-12-21T04:36:55.237Z,7.29
2018-12-21T04:42:48.713Z,7.27
2018-12-21T04:45:35.864Z,7.26
2018-12-21T04:48:23.406Z,7.99
2018-12-21T04:51:10.649Z,7.52
2018-12-21T04:53:57.790Z,7.43
2018-12-21T04:56:45.115Z,8.14
2018-12-21T04:59:32.468Z,7.61
2018-12-21T05:02:19.585Z,7.49
2018-12-21T05:05:06.763Z,8.15
2018-12-21T05:07:54.169Z,7.62
2018-12-21T05:10:41.509Z,7.49
2018-12-21T05:13:28.808Z,7.40
2018-12-21T05:16:16.432Z,7.34
2018-12-21T05:19:03.914Z,7.30
2018-12-21T05:21:51.168Z,7.27
2018-12-21T05:24:38.409Z,7.22
2018-12-21T05:27:25.626Z,7.19
2018-12-21T05:30:12.804Z,7.16
2018-12-21T05:33:00.215Z,7.16
2018-12-21T05:35:47.467Z,7.16
2018-12-21T05:38:36.140Z,7.16
2018-12-21T05:41:23.199Z,7.14
2018-12-21T05:44:10.510Z,7.14
2018-12-21T05:46:57.673Z,7.13
2018-12-21T05:49:45.635Z,7.14
2018-12-21T05:52:32.872Z,7.16
2018-12-21T05:55:19.949Z,7.87
2018-12-21T05:58:07.312Z,7.44
2018-12-21T06:00:55.511Z,7.37
2018-12-21T06:03:42.778Z,7.34
2018-12-21T06:06:30.456Z,7.32
2018-12-21T06:09:18.388Z,8.00
2018-12-21T06:12:08.523Z,7.51
2018-12-21T06:14:55.798Z,7.41
2018-12-21T06:17:45.200Z,7.36
2018-12-21T06:20:32.421Z,7.31
2018-12-21T06:23:20.223Z,7.28
2018-12-21T06:26:07.578Z,7.27
2018-12-21T06:28:54.905Z,8.00
2018-12-21T06:31:42.306Z,7.54
2018-12-21T06:34:29.590Z,7.47
2018-12-21T06:37:16.641Z,7.47
2018-12-21T06:43:10.178Z,7.45
2018-12-21T06:45:58.109Z,7.43
2018-12-21T06:48:45.450Z,7.43
2018-12-21T06:51:32.953Z,7.41
2018-12-21T06:54:20.608Z,7.40
2018-12-21T06:57:07.836Z,7.39
2018-12-21T06:59:57.369Z,7.39
2018-12-21T07:02:45.200Z,7.38
2018-12-21T07:05:32.563Z,7.39
2018-12-21T07:08:19.737Z,7.40
2018-12-21T07:11:06.962Z,7.39
2018-12-21T07:13:54.152Z,7.40
2018-12-21T07:16:41.250Z,7.40
2018-12-21T07:19:28.689Z,7.40
2018-12-21T07:22:16.032Z,7.40
2018-12-21T07:25:03.542Z,7.41
2018-12-21T07:27:50.913Z,8.13
2018-12-21T07:30:38.953Z,7.68
2018-12-21T07:33:26.667Z,7.60
2018-12-21T07:36:15.646Z,8.30
2018-12-21T07:39:03.072Z,7.80
2018-12-21T07:41:51.653Z,7.69
2018-12-21T07:44:39.635Z,7.65
2018-12-21T07:47:32.154Z,8.35
2018-12-21T07:50:18.079Z,7.86
2018-12-21T07:53:09.568Z,7.77
2018-12-21T07:55:57.599Z,7.74
2018-12-21T07:58:44.951Z,7.71
2018-12-21T08:01:32.619Z,7.68
2018-12-21T08:04:20.510Z,7.66
2018-12-21T08:07:08.547Z,7.66
2018-12-21T08:09:56.726Z,7.63
2018-12-21T08:12:44.852Z,8.39
2018-12-21T08:15:33.625Z,7.93
2018-12-21T08:18:22.481Z,7.85
2018-12-21T08:21:10.163Z,7.82
2018-12-21T08:23:57.817Z,7.82
2018-12-21T08:26:45.161Z,8.57
2018-12-21T08:29:32.982Z,8.78
2018-12-21T08:32:21.290Z,8.20
2018-12-21T08:35:10.607Z,8.06
2018-12-21T08:37:58.149Z,8.76
2018-12-21T08:40:51.734Z,8.22
2018-12-21T08:43:40.292Z,8.08
2018-12-21T08:46:28.428Z,7.99
2018-12-21T08:49:17.586Z,7.92
2018-12-21T08:52:06.345Z,7.86
2018-12-21T08:55:08.919Z,7.82
2018-12-21T08:57:58.157Z,7.76
2018-12-21T09:03:57.661Z,7.68
2018-12-21T09:09:57.373Z,7.89
2018-12-21T09:12:46.575Z,7.82
2018-12-21T09:15:36.228Z,7.81
2018-12-21T09:21:38.765Z,7.75
2018-12-21T09:24:31.019Z,7.76
2018-12-21T09:27:19.017Z,7.74
2018-12-21T09:33:17.260Z,7.76
2018-12-21T09:39:13.986Z,8.03
2018-12-21T09:42:01.720Z,7.98
2018-12-21T09:44:52.670Z,7.96
2018-12-21T09:47:38.044Z,7.93
2018-12-21T09:50:25.627Z,7.91
2018-12-21T09:53:14.861Z,7.87
2018-12-21T09:59:09.004Z,7.87
2018-12-21T10:01:56.683Z,7.90
2018-12-21T10:04:44.396Z,7.91
2018-12-21T10:07:32.349Z,7.92
2018-12-21T10:10:29.016Z,7.95
2018-12-21T10:13:21.527Z,7.96
2018-12-21T10:16:09.294Z,7.99
2018-12-21T10:18:58.863Z,7.99
2018-12-21T10:21:47.550Z,8.00
2018-12-21T10:24:35.050Z,8.04
2018-12-21T10:27:23.699Z,8.04
2018-12-21T10:30:12.065Z,8.10
2018-12-21T10:33:00.098Z,8.13
2018-12-21T10:35:47.177Z,8.94
2018-12-21T10:38:34.802Z,8.40
2018-12-21T10:41:22.476Z,8.28
2018-12-21T10:44:09.646Z,8.26
2018-12-21T10:47:12.459Z,8.22
2018-12-21T10:50:00.075Z,9.05
2018-12-21T10:52:47.294Z,8.50
2018-12-21T10:58:40.368Z,8.39
2018-12-21T11:01:30.741Z,8.40
2018-12-21T11:04:18.342Z,8.44
2018-12-21T11:07:05.870Z,8.46
2018-12-21T11:09:52.979Z,8.48
2018-12-21T11:12:40.344Z,8.52
2018-12-21T11:15:27.729Z,8.56
2018-12-21T11:18:15.001Z,8.57
2018-12-21T11:21:04.769Z,9.45
2018-12-21T11:23:51.912Z,9.72
2018-12-21T11:26:41.299Z,9.06
2018-12-21T11:29:28.761Z,8.90
2018-12-21T11:32:16.042Z,8.78
2018-12-21T11:41:18.351Z,8.47
2018-12-21T11:53:31.250Z,8.20
2018-12-21T11:56:18.841Z,8.18
2018-12-21T11:59:06.634Z,8.14
2018-12-21T12:01:55.869Z,8.10
2018-12-21T12:04:43.495Z,8.08
2018-12-21T12:10:41.928Z,7.99
2018-12-21T12:13:29.838Z,8.02
2018-12-21T12:16:19.257Z,8.01
2018-12-21T12:19:06.957Z,7.99
2018-12-21T12:21:57.640Z,7.98
2018-12-21T12:24:52.699Z,7.96
2018-12-21T12:27:36.882Z,7.97
2018-12-21T12:30:25.139Z,7.96
2018-12-21T12:33:12.915Z,8.72
2018-12-21T12:36:00.495Z,8.96
2018-12-21T12:38:47.652Z,8.35
2018-12-21T12:41:34.937Z,8.22
2018-12-21T12:44:22.264Z,8.94
2018-12-21T12:47:10.551Z,8.40
2018-12-21T12:49:57.675Z,8.27
2018-12-21T12:52:47.782Z,8.18
2018-12-21T12:55:35.779Z,8.11
2018-12-21T12:58:23.055Z,8.86
2018-12-21T13:01:10.364Z,8.34
2018-12-21T13:03:59.980Z,8.25
2018-12-21T13:06:53.310Z,8.21
2018-12-21T13:09:59.953Z,8.22
2018-12-21T13:12:49.626Z,9.05
2018-12-21T13:15:37.525Z,8.51
2018-12-21T13:18:31.340Z,8.39
2018-12-21T13:21:20.547Z,8.37
2018-12-21T13:24:08.519Z,8.35
2018-12-21T13:27:07.765Z,8.31
2018-12-21T13:30:00.961Z,8.31
2018-12-21T13:32:48.338Z,8.32
2018-12-21T13:35:38.270Z,8.30
2018-12-21T13:38:27.188Z,8.34
2018-12-21T13:41:16.882Z,8.34
2018-12-21T13:44:06.518Z,8.35
2018-12-21T13:46:54.165Z,8.36
2018-12-21T13:49:45.686Z,8.39
2018-12-21T13:52:33.751Z,8.43
2018-12-21T13:55:33.450Z,8.48
2018-12-21T14:04:42.153Z,8.51
2018-12-21T14:07:30.953Z,8.52
2018-12-21T14:10:21.496Z,8.53
2018-12-21T14:13:09.514Z,9.32
2018-12-21T14:19:08.427Z,9.54
2018-12-21T14:22:00.885Z,9.00
2018-12-21T14:24:48.648Z,8.92
2018-12-21T14:30:44.032Z,8.84
2018-12-21T14:33:32.768Z,8.84
2018-12-21T14:36:20.920Z,8.83
2018-12-21T14:39:09.585Z,8.84
2018-12-21T14:41:57.288Z,8.84
2018-12-21T14:47:58.376Z,8.82
2018-12-21T14:50:46.404Z,8.85
2018-12-21T14:53:36.703Z,8.84
2018-12-21T14:56:25.026Z,8.85
2018-12-21T14:59:19.808Z,9.56
2018-12-21T15:02:10.673Z,9.12
2018-12-21T15:05:02.630Z,9.05
2018-12-21T15:08:01.751Z,9.04
2018-12-21T15:17:11.785Z,9.25
2018-12-21T15:20:02.687Z,9.25
2018-12-21T15:22:54.917Z,9.27
2018-12-21T15:25:47.265Z,9.29
2018-12-21T15:31:47.740Z,9.35
2018-12-21T15:34:46.782Z,10.08
2018-12-21T15:37:35.034Z,9.67
2018-12-21T15:40:25.874Z,9.62
2018-12-21T15:49:36.585Z,9.63
2018-12-21T15:52:23.911Z,10.34
2018-12-21T15:55:11.697Z,10.58
2018-12-21T15:58:00.187Z,10.07
2018-12-21T16:00:49.859Z,9.98
2018-12-21T16:03:42.093Z,9.95
2018-12-21T16:06:39.118Z,9.95
2018-12-21T16:09:26.641Z,9.96
2018-12-21T16:12:15.175Z,10.65
2018-12-21T16:15:02.275Z,10.90
2018-12-21T16:17:49.710Z,10.42
2018-12-21T16:20:37.079Z,10.35
2018-12-21T16:23:24.517Z,10.35
2018-12-21T16:26:11.708Z,10.35
2018-12-21T16:32:20.943Z,10.43
2018-12-21T16:35:08.367Z,10.47
2018-12-21T16:37:58.614Z,10.51
2018-12-21T16:40:45.771Z,10.61
2018-12-21T16:43:32.821Z,10.67
2018-12-21T16:46:20.429Z,10.75
2018-12-21T16:49:07.909Z,10.83
2018-12-21T16:51:55.024Z,10.83
2018-12-21T16:54:42.691Z,11.46
2018-12-21T16:57:29.861Z,11.08
2018-12-21T17:00:17.254Z,11.01
2018-12-21T17:03:04.649Z,11.02
2018-12-21T17:05:52.138Z,11.07
2018-12-21T17:08:39.595Z,11.13
2018-12-21T17:11:42.462Z,11.13
2018-12-21T17:14:29.877Z,11.11
2018-12-21T17:17:17.661Z,11.68
2018-12-21T17:20:06.403Z,11.28
2018-12-21T17:22:53.564Z,11.24
2018-12-21T17:25:40.798Z,11.28
2018-12-21T17:28:28.197Z,11.31
2018-12-21T17:31:17.849Z,11.32
2018-12-21T17:37:12.736Z,11.28
2018-12-21T17:40:00.269Z,11.35
2018-12-21T17:45:53.465Z,11.41
2018-12-21T17:48:48.544Z,11.40
2018-12-21T17:51:40.394Z,11.37
2018-12-21T17:54:31.581Z,11.34
2018-12-21T17:57:18.594Z,11.32
2018-12-21T18:00:06.690Z,11.36
2018-12-21T18:02:53.916Z,11.46
2018-12-21T18:05:41.738Z,11.55
2018-12-21T18:08:29.748Z,11.58
2018-12-21T18:11:17.195Z,11.62
2018-12-21T18:14:12.889Z,11.66
2018-12-21T18:17:07.906Z,11.80
2018-12-21T18:19:55.475Z,11.88
2018-12-21T18:25:49.257Z,12.57
2018-12-21T18:28:36.730Z,12.22
2018-12-21T18:31:26.839Z,12.15
2018-12-21T18:34:15.405Z,12.11
2018-12-21T18:37:02.519Z,12.09
2018-12-21T18:39:57.741Z,12.05
2018-12-21T18:42:45.138Z,12.07
2018-12-21T18:45:32.280Z,12.06
2018-12-21T18:48:21.565Z,12.00
2018-12-21T18:51:08.659Z,11.97
2018-12-21T18:53:55.684Z,11.96
2018-12-21T18:56:47.379Z,11.99
2018-12-21T18:59:34.144Z,12.05
2018-12-21T19:02:22.077Z,12.69
2018-12-21T19:05:11.040Z,12.29
2018-12-21T19:11:04.098Z,12.09
2018-12-21T19:13:52.446Z,12.62
2018-12-21T19:16:39.809Z,12.74
2018-12-21T19:19:27.041Z,12.19
2018-12-21T19:22:14.235Z,12.71
2018-12-21T19:25:02.009Z,12.21
2018-12-21T19:27:50.730Z,12.78
2018-12-21T19:30:37.951Z,12.33
2018-12-21T19:33:25.317Z,12.14
2018-12-21T19:36:13.090Z,12.10
2018-12-21T19:39:00.559Z,11.94
2018-12-21T19:41:47.935Z,11.85
2018-12-21T19:44:37.450Z,11.74
2018-12-21T19:47:25.033Z,12.27
2018-12-21T19:50:12.319Z,12.38
2018-12-21T19:52:59.559Z,11.83
2018-12-21T19:55:46.868Z,11.68
2018-12-21T19:58:34.732Z,12.22
2018-12-21T20:01:22.969Z,11.78
2018-12-21T20:07:16.091Z,12.31
2018-12-21T20:10:04.043Z,11.85
2018-12-21T20:13:07.018Z,11.77
2018-12-21T20:15:54.147Z,11.71
2018-12-21T20:18:41.744Z,11.67
2018-12-21T20:21:30.075Z,11.66
2018-12-21T20:24:17.493Z,11.70
2018-12-21T20:27:13.071Z,11.70
2018-12-21T20:29:52.707Z,11.66
2018-12-21T20:32:40.180Z,11.63
2018-12-21T20:35:28.434Z,11.57
2018-12-21T20:41:22.188Z,11.47
2018-12-21T20:44:09.368Z,11.44
2018-12-21T20:47:05.543Z,11.39
2018-12-21T20:49:52.501Z,11.33
2018-12-21T20:52:41.675Z,11.31
2018-12-21T20:55:28.723Z,11.28
2018-12-21T20:58:17.001Z,11.24
2018-12-21T21:01:04.254Z,11.27
2018-12-21T21:03:52.846Z,11.28
2018-12-21T21:06:40.290Z,11.33
2018-12-21T21:09:27.289Z,11.37
2018-12-21T21:12:17.724Z,11.37
2018-12-21T21:15:06.755Z,11.37
2018-12-21T21:17:54.440Z,11.35
2018-12-21T21:20:41.412Z,11.38
2018-12-21T21:23:28.657Z,11.41
2018-12-21T21:26:15.702Z,11.45
2018-12-21T21:29:02.622Z,11.51
2018-12-21T21:31:51.061Z,12.05
2018-12-21T21:34:38.589Z,11.70
2018-12-21T21:37:26.314Z,11.61
2018-12-21T21:43:30.325Z,11.57
2018-12-21T21:46:24.627Z,11.56
2018-12-21T21:49:19.428Z,11.53
2018-12-21T21:52:09.268Z,11.54
2018-12-21T21:55:12.973Z,11.53
2018-12-21T21:58:00.492Z,11.50
2018-12-21T22:00:47.908Z,11.45
2018-12-21T22:03:39.378Z,11.41
2018-12-21T22:06:26.868Z,11.41
2018-12-21T22:09:15.985Z,11.43
2018-12-21T22:12:03.222Z,11.41
2018-12-21T22:14:50.894Z,11.35
2018-12-21T22:17:37.762Z,11.30
2018-12-21T22:20:24.880Z,11.93
2018-12-21T22:26:18.703Z,11.39
2018-12-21T22:29:10.112Z,11.36
2018-12-21T22:31:57.433Z,12.06
2018-12-21T22:34:44.550Z,12.26
2018-12-21T22:37:33.067Z,11.73
2018-12-21T22:40:25.390Z,11.61
2018-12-21T22:43:13.679Z,11.52
2018-12-21T22:46:00.723Z,11.44
2018-12-21T22:48:47.693Z,12.07
2018-12-21T22:51:34.976Z,11.61
2018-12-21T22:54:22.441Z,12.18
2018-12-21T22:57:09.732Z,11.68
2018-12-21T22:59:57.045Z,12.26
2018-12-21T23:02:53.285Z,12.36
2018-12-21T23:05:40.830Z,11.72
2018-12-21T23:08:29.693Z,11.56
2018-12-21T23:11:21.103Z,11.48
2018-12-21T23:14:08.668Z,11.45
2018-12-21T23:16:57.191Z,11.37
2018-12-21T23:19:44.109Z,11.37
2018-12-21T23:25:39.172Z,11.34
2018-12-21T23:28:27.906Z,11.38
2018-12-21T23:31:15.650Z,11.39
2018-12-21T23:34:03.159Z,11.99
2018-12-21T23:36:50.812Z,11.57
2018-12-21T23:39:40.952Z,11.50
2018-12-21T23:42:31.397Z,11.47
2018-12-21T23:45:19.669Z,11.42
2018-12-21T23:51:16.955Z,11.43
2018-12-21T23:54:05.529Z,11.37
2018-12-21T23:56:53.078Z,11.37
2018-12-21T23:59:45.514Z,11.33
